Time;durP1;ratioP1;P1;durP2;ratioP2;P2;SDS_P1;SDS_P2;PMS_P1;PMS_P2;Temp;Humidity;BMP_temperature;BMP_pressure;BME280_temperature;BME280_humidity;BME280_pressure;Samples;Min_cycle;Max_cycle;Signal;HPM_P1;HPM_P2
2023/01/12 00:00:04;;;;;;;;;;;;;;;27.91;71.27;101000.13;5070922;27;70607;-36
2023/01/12 00:02:39;;;;;;;;;;;;;;;27.99;71.88;101002.66;5084340;27;67233;-38
2023/01/12 00:05:10;;;;;;;;;;;;;;;28.10;72.91;101001.28;5090401;27;70563;-37
2023/01/12 00:07:41;;;;;;;;;;;;;;;28.17;73.37;101009.44;5084933;27;64855;-39
2023/01/12 00:10:12;;;;;;;;;;;;;;;28.21;73.29;101013.38;5094626;27;69905;-38
2023/01/12 00:12:42;;;;;;;;;;;;;;;28.27;73.56;101023.38;5091884;27;66994;-37
2023/01/12 00:15:13;;;;;;;;;;;;;;;28.26;73.33;101019.03;5074333;27;69099;-37
2023/01/12 00:17:44;;;;;;;;;;;;;;;28.25;73.41;101025.44;5091068;27;65580;-38
2023/01/12 00:20:15;;;;;;;;;;;;;;;28.26;72.95;101032.50;5083094;27;70236;-39
2023/01/12 00:22:48;;;;;;;;;;;;;;;28.19;72.82;101039.72;5094983;27;66116;-40
2023/01/12 00:25:19;;;;;;;;;;;;;;;28.13;72.78;101045.91;5086947;27;69473;-41
2023/01/12 00:27:50;;;;;;;;;;;;;;;28.13;72.11;101048.59;5094313;27;66893;-39
2023/01/12 00:30:20;;;;;;;;;;;;;;;28.17;71.88;101055.28;5087876;27;70109;-39
2023/01/12 00:32:51;;;;;;;;;;;;;;;28.20;71.15;101057.59;5076088;27;66826;-39
2023/01/12 00:35:22;;;;;;;;;;;;;;;28.19;71.83;101050.50;5085585;27;70151;-40
2023/01/12 00:37:54;;;;;;;;;;;;;;;28.23;71.59;101062.56;5086578;27;66193;-40
2023/01/12 00:40:24;;;;;;;;;;;;;;;28.22;71.46;101064.44;5084424;27;70667;-40
2023/01/12 00:45:48;;;;;;;;;;;;;;;28.28;71.79;101071.75;5074152;27;69955;-40
2023/01/12 00:48:19;;;;;;;;;;;;;;;28.31;71.42;101073.22;5090770;27;66071;-39
2023/01/12 00:50:50;;;;;;;;;;;;;;;28.33;71.83;101079.22;5077552;27;70328;-40
2023/01/12 00:53:20;;;;;;;;;;;;;;;28.35;71.60;101081.72;5090409;27;66124;-40
2023/01/12 00:55:59;;;;;;;;;;;;;;;28.36;71.90;101089.66;5092226;27;63706;-39
2023/01/12 00:58:30;;;;;;;;;;;;;;;28.39;71.77;101083.84;5093447;27;65807;-41
2023/01/12 01:01:05;;;;;;;;;;;;;;;28.41;71.41;101087.16;5095024;27;70505;-39
2023/01/12 01:03:36;;;;;;;;;;;;;;;28.44;71.67;101092.19;5078027;27;65925;-40
2023/01/12 01:06:07;;;;;;;;;;;;;;;28.45;71.21;101085.78;5082943;27;70773;-39
2023/01/12 01:08:38;;;;;;;;;;;;;;;28.49;71.28;101095.13;5085592;27;66445;-40
2023/01/12 01:11:10;;;;;;;;;;;;;;;28.51;71.02;101097.63;5084464;27;70029;-40
2023/01/12 01:13:44;;;;;;;;;;;;;;;28.57;70.92;101096.00;5083111;27;66550;-40
2023/01/12 01:16:17;;;;;;;;;;;;;;;28.60;70.69;101106.41;5084494;27;69907;-40
2023/01/12 01:18:48;;;;;;;;;;;;;;;28.63;70.29;101100.59;5085588;27;65783;-40
2023/01/12 01:21:19;;;;;;;;;;;;;;;28.66;70.16;101111.00;5085206;27;68609;-39
2023/01/12 01:23:49;;;;;;;;;;;;;;;28.69;69.98;101111.41;5083819;27;65544;-39
2023/01/12 01:26:21;;;;;;;;;;;;;;;28.71;70.41;101108.53;5083946;27;70569;-39
2023/01/12 01:28:53;;;;;;;;;;;;;;;28.72;70.14;101105.66;5088064;27;65456;-46
2023/01/12 01:31:24;;;;;;;;;;;;;;;28.74;70.19;101108.13;5083548;27;71160;-46
2023/01/12 01:33:55;;;;;;;;;;;;;;;28.73;70.51;101101.06;5095543;27;66508;-40
2023/01/12 01:36:26;;;;;;;;;;;;;;;28.76;69.99;101119.56;5071877;27;69871;-39
2023/01/12 01:38:57;;;;;;;;;;;;;;;28.76;69.94;101114.16;5078811;27;66139;-40
2023/01/12 01:41:30;;;;;;;;;;;;;;;28.78;70.29;101104.00;5085589;27;70291;-40
2023/01/12 01:44:02;;;;;;;;;;;;;;;28.81;69.89;101114.41;5084940;27;66646;-40
2023/01/12 01:46:36;;;;;;;;;;;;;;;28.79;69.49;101104.84;5090841;27;70607;-39
2023/01/12 01:49:15;;;;;;;;;;;;;;;28.85;70.04;101107.56;5094869;27;65591;-40
2023/01/12 01:51:45;;;;;;;;;;;;;;;28.87;69.64;101108.19;5098544;27;70210;-40
2023/01/12 01:54:16;;;;;;;;;;;;;;;28.90;69.47;101104.25;5084624;27;66921;-40
2023/01/12 01:56:49;;;;;;;;;;;;;;;28.91;70.04;101109.44;5100099;27;68911;-40
2023/01/12 01:59:21;;;;;;;;;;;;;;;28.95;69.87;101112.59;5085607;27;66092;-39
2023/01/12 02:01:53;;;;;;;;;;;;;;;28.96;69.84;101115.09;5088655;27;69768;-40
2023/01/12 02:04:25;;;;;;;;;;;;;;;28.98;69.77;101109.50;5088039;27;66016;-39
2023/01/12 02:06:57;;;;;;;;;;;;;;;29.02;69.32;101115.31;5084534;27;69737;-39
2023/01/12 02:09:29;;;;;;;;;;;;;;;29.04;69.71;101118.69;5084510;27;65962;-40
2023/01/12 02:17:46;;;;;;;;;;;;;;;29.11;69.13;101114.13;5085696;27;70125;-40
2023/01/12 02:20:35;;;;;;;;;;;;;;;29.13;69.86;101123.69;5083549;27;66316;-40
2023/01/12 02:23:26;;;;;;;;;;;;;;;29.17;69.43;101119.56;5074318;27;70124;-40
2023/01/12 02:26:14;;;;;;;;;;;;;;;29.15;69.18;101124.31;5086450;27;66978;-40
2023/01/12 02:29:05;;;;;;;;;;;;;;;29.21;68.90;101130.78;5084537;27;69845;-41
2023/01/12 02:31:55;;;;;;;;;;;;;;;29.26;68.89;101136.41;5078338;27;66130;-40
2023/01/12 02:34:28;;;;;;;;;;;;;;;29.29;68.99;101127.91;5062143;27;69661;-40
2023/01/12 02:37:17;;;;;;;;;;;;;;;29.32;68.80;101132.91;5078202;27;66915;-40
2023/01/12 02:40:11;;;;;;;;;;;;;;;29.34;69.05;101122.72;5079611;27;71090;-40
2023/01/12 02:42:53;;;;;;;;;;;;;;;29.38;68.44;101131.25;5078950;27;66069;-40
2023/01/12 02:45:30;;;;;;;;;;;;;;;29.37;68.42;101127.72;5080051;27;70307;-50
2023/01/12 02:48:03;;;;;;;;;;;;;;;29.39;68.59;101120.25;5042015;27;66012;-42
2023/01/12 02:50:39;;;;;;;;;;;;;;;29.39;68.19;101122.94;5082038;27;69734;-42
2023/01/12 02:53:37;;;;;;;;;;;;;;;29.44;68.69;101121.50;5072971;27;66584;-40
2023/01/12 02:56:09;;;;;;;;;;;;;;;29.46;68.07;101120.25;5052445;27;70288;-40
2023/01/12 02:58:44;;;;;;;;;;;;;;;29.49;67.97;101124.41;5082428;27;65799;-40
2023/01/12 03:01:16;;;;;;;;;;;;;;;29.52;67.86;101126.69;5080767;27;69816;-40
2023/01/12 03:03:51;;;;;;;;;;;;;;;29.55;68.23;101120.88;5082868;27;65768;-41
2023/01/12 03:06:23;;;;;;;;;;;;;;;29.59;67.84;101122.16;5085829;27;70115;-40
2023/01/12 03:08:54;;;;;;;;;;;;;;;29.62;67.69;101119.03;5069830;27;66833;-40
2023/01/12 03:11:26;;;;;;;;;;;;;;;29.66;68.04;101116.78;5093877;27;70772;-40
2023/01/12 03:13:59;;;;;;;;;;;;;;;29.69;67.79;101117.19;5084474;27;66633;-40
2023/01/12 03:16:32;;;;;;;;;;;;;;;29.72;68.67;101110.53;5087764;27;69519;-40
2023/01/12 03:19:08;;;;;;;;;;;;;;;29.75;68.90;101110.94;5096142;27;66065;-40
2023/01/12 03:21:39;;;;;;;;;;;;;;;29.78;68.05;101110.56;5066256;28;68839;-40
2023/01/12 03:24:19;;;;;;;;;;;;;;;29.80;68.33;101113.88;5084742;27;66381;-39
2023/01/12 03:26:51;;;;;;;;;;;;;;;29.81;68.04;101110.13;5085412;27;68666;-40
2023/01/12 03:29:25;;;;;;;;;;;;;;;29.78;67.87;101102.44;5083314;27;67038;-42
2023/01/12 03:31:56;;;;;;;;;;;;;;;29.82;67.56;101095.56;5079816;27;70039;-40
2023/01/12 03:34:27;;;;;;;;;;;;;;;29.84;67.52;101098.91;5085416;27;65740;-41
2023/01/12 03:37:13;;;;;;;;;;;;;;;29.89;67.73;101092.03;5082346;27;69311;-41
2023/01/12 03:39:47;;;;;;;;;;;;;;;29.90;67.94;101102.66;5083044;27;65893;-41
2023/01/12 03:42:23;;;;;;;;;;;;;;;29.93;68.16;101096.00;5078309;27;70039;-41
2023/01/12 03:44:54;;;;;;;;;;;;;;;29.95;67.42;101089.34;5081139;27;66698;-49
2023/01/12 03:47:28;;;;;;;;;;;;;;;29.96;67.43;101084.75;5062716;28;69713;-40
2023/01/12 03:49:59;;;;;;;;;;;;;;;29.97;67.30;101091.81;5065232;28;67004;-40
2023/01/12 03:52:30;;;;;;;;;;;;;;;29.98;67.39;101088.09;5066864;28;70538;-41
2023/01/12 03:55:02;;;;;;;;;;;;;;;29.99;67.03;101085.16;5062402;28;65779;-40
2023/01/12 03:57:34;;;;;;;;;;;;;;;30.02;67.39;101083.91;5062428;28;68290;-41
2023/01/12 04:00:09;;;;;;;;;;;;;;;30.02;67.28;101084.72;5064215;28;66856;-41
2023/01/12 04:02:43;;;;;;;;;;;;;;;30.03;66.56;101080.16;5064346;28;68862;-40
2023/01/12 04:05:14;;;;;;;;;;;;;;;30.04;66.90;101071.84;5061476;27;67159;-42
2023/01/12 04:07:44;;;;;;;;;;;;;;;30.04;66.25;101062.91;5065551;27;70427;-40
2023/01/12 04:10:15;;;;;;;;;;;;;;;30.04;66.47;101060.19;5061342;28;66083;-40
2023/01/12 04:12:46;;;;;;;;;;;;;;;30.03;66.09;101056.66;5066230;27;70814;-41
2023/01/12 04:15:16;;;;;;;;;;;;;;;30.02;66.20;101046.03;5059745;28;66953;-41
2023/01/12 04:17:47;;;;;;;;;;;;;;;30.04;66.62;101049.38;5058989;28;70594;-40
2023/01/12 04:20:18;;;;;;;;;;;;;;;30.05;66.32;101046.44;5065024;28;66008;-40
2023/01/12 04:22:49;;;;;;;;;;;;;;;30.08;66.16;101044.38;5060144;28;69922;-40
2023/01/12 04:25:20;;;;;;;;;;;;;;;30.08;66.44;101047.91;5064508;28;66570;-40
2023/01/12 04:27:55;;;;;;;;;;;;;;;30.09;66.09;101036.06;5059805;28;69388;-41
2023/01/12 04:30:26;;;;;;;;;;;;;;;30.11;66.33;101033.13;5061853;27;66412;-41
2023/01/12 04:32:58;;;;;;;;;;;;;;;30.11;66.19;101033.94;5060257;27;70100;-40
2023/01/12 04:35:28;;;;;;;;;;;;;;;30.12;65.93;101034.78;5066621;27;66258;-41
2023/01/12 04:38:04;;;;;;;;;;;;;;;30.13;66.25;101031.88;5059156;28;68759;-41
2023/01/12 04:40:35;;;;;;;;;;;;;;;30.13;66.93;101023.75;5067594;28;66928;-40
2023/01/12 04:43:08;;;;;;;;;;;;;;;30.15;66.65;101018.97;5063022;27;69073;-40
2023/01/12 04:45:42;;;;;;;;;;;;;;;30.17;67.01;101016.03;5065052;28;67384;-40
2023/01/12 04:48:15;;;;;;;;;;;;;;;30.20;66.56;101011.03;5084884;27;69602;-39
2023/01/12 04:50:45;;;;;;;;;;;;;;;30.22;67.14;101019.78;5084391;27;66027;-39
2023/01/12 04:53:16;;;;;;;;;;;;;;;30.25;66.86;101013.13;5064054;27;69977;-41
2023/01/12 04:55:48;;;;;;;;;;;;;;;30.25;66.87;101005.00;5063338;27;66740;-40
2023/01/12 04:58:19;;;;;;;;;;;;;;;30.27;66.99;100994.81;5078323;27;70282;-41
2023/01/12 05:00:50;;;;;;;;;;;;;;;30.27;66.82;100995.63;5080895;27;65242;-40
2023/01/12 05:03:21;;;;;;;;;;;;;;;30.31;66.36;100995.19;5072542;27;68658;-40
2023/01/12 05:05:52;;;;;;;;;;;;;;;30.33;66.47;100998.53;5064192;27;64948;-39
2023/01/12 05:11:12;;;;;;;;;;;;;;;30.38;67.01;100983.31;5057440;28;66607;-39
2023/01/12 05:13:43;;;;;;;;;;;;;;;30.33;66.63;100971.47;5078968;27;69173;-40
2023/01/12 05:16:16;;;;;;;;;;;;;;;30.41;66.82;100968.53;5079695;27;66094;-40
2023/01/12 05:18:47;;;;;;;;;;;;;;;30.44;66.87;100962.69;5084617;27;69833;-40
2023/01/12 05:21:20;;;;;;;;;;;;;;;30.44;66.93;100957.28;5084755;27;65096;-40
2023/01/12 05:23:51;;;;;;;;;;;;;;;30.44;66.76;100946.44;5067101;27;71154;-40
2023/01/12 05:26:22;;;;;;;;;;;;;;;30.47;66.92;100951.41;5055946;27;65850;-40
2023/01/12 05:28:53;;;;;;;;;;;;;;;30.48;67.54;100944.97;5056895;27;69467;-39
2023/01/12 05:31:23;;;;;;;;;;;;;;;30.04;66.83;100871.66;5086702;27;66830;-40
2023/01/12 05:33:54;;;;;;;;;;;;;;;30.51;67.46;100936.44;5089065;27;71254;-40
2023/01/12 05:36:24;;;;;;;;;;;;;;;30.52;67.44;100929.13;5066492;27;67367;-39
2023/01/12 05:38:55;;;;;;;;;;;;;;;30.51;67.65;100920.19;5084447;27;71660;-39
2023/01/12 05:41:26;;;;;;;;;;;;;;;30.51;67.57;100914.78;5087393;27;66054;-39
2023/01/12 05:43:57;;;;;;;;;;;;;;;30.52;67.72;100921.84;5081327;27;70936;-39
2023/01/12 05:46:32;;;;;;;;;;;;;;;30.55;67.16;100913.28;5084920;27;66298;-37
2023/01/12 05:49:02;;;;;;;;;;;;;;;30.53;67.35;100896.41;5082837;27;70501;-37
2023/01/12 05:51:35;;;;;;;;;;;;;;;30.55;67.53;100902.44;5084861;27;66176;-37
2023/01/12 05:54:06;;;;;;;;;;;;;;;30.54;67.47;100892.69;5079751;27;69758;-36
2023/01/12 05:56:36;;;;;;;;;;;;;;;30.51;67.10;100882.28;5078178;27;65616;-37
2023/01/12 05:59:09;;;;;;;;;;;;;;;30.54;67.02;100887.25;5080743;27;69835;-36
2023/01/12 06:01:40;;;;;;;;;;;;;;;30.54;66.89;100876.44;5081901;27;66696;-37
2023/01/12 06:04:10;;;;;;;;;;;;;;;30.56;67.43;100863.47;5084663;27;69736;-37
2023/01/12 06:06:41;;;;;;;;;;;;;;;30.56;67.07;100857.25;5080806;27;66957;-36
2023/01/12 06:09:13;;;;;;;;;;;;;;;30.58;67.18;100855.16;5083215;27;70662;-36
2023/01/12 06:14:34;;;;;;;;;;;;;;;30.58;67.30;100842.44;5081638;27;70285;-36
2023/01/12 06:17:05;;;;;;;;;;;;;;;30.58;67.42;100828.91;5078812;27;65856;-36
2023/01/12 06:19:36;;;;;;;;;;;;;;;30.60;66.74;100826.81;5079500;27;69326;-37
2023/01/12 06:22:07;;;;;;;;;;;;;;;30.60;66.90;100816.00;5083710;27;65805;-37
2023/01/12 06:24:39;;;;;;;;;;;;;;;30.60;67.25;100813.28;5067513;27;69151;-36
2023/01/12 06:27:09;;;;;;;;;;;;;;;30.62;66.68;100816.59;5085424;27;66034;-36
2023/01/12 06:29:40;;;;;;;;;;;;;;;30.59;66.85;100808.94;5067401;28;70288;-36
2023/01/12 06:32:10;;;;;;;;;;;;;;;30.61;67.37;100812.22;5084137;27;66785;-36
2023/01/12 06:34:44;;;;;;;;;;;;;;;30.60;67.08;100805.16;5083583;27;69889;-36
2023/01/12 06:37:15;;;;;;;;;;;;;;;30.62;67.28;100805.78;5086721;27;66888;-36
2023/01/12 06:39:45;;;;;;;;;;;;;;;30.63;66.95;100798.47;5082674;27;69748;-37
2023/01/12 06:42:28;;;;;;;;;;;;;;;30.64;67.46;100784.72;5089299;27;66700;-36
2023/01/12 06:45:02;;;;;;;;;;;;;;;30.67;66.85;100787.00;5079166;27;70183;-37
2023/01/12 06:47:33;;;;;;;;;;;;;;;30.71;67.38;100784.66;5084279;27;66738;-36
2023/01/12 06:50:04;;;;;;;;;;;;;;;30.73;67.20;100777.97;5086574;27;69392;-36
2023/01/12 06:52:34;;;;;;;;;;;;;;;30.75;66.71;100769.63;5061273;27;66571;-36
2023/01/12 06:55:05;;;;;;;;;;;;;;;30.78;66.83;100769.16;5066802;28;70468;-36
2023/01/12 06:57:35;;;;;;;;;;;;;;;30.81;66.58;100773.34;5084589;27;65179;-37
2023/01/12 07:00:07;;;;;;;;;;;;;;;30.84;66.95;100764.78;5082387;27;69768;-35
2023/01/12 07:02:38;;;;;;;;;;;;;;;30.86;66.37;100752.66;5064198;27;65898;-34
2023/01/12 07:05:09;;;;;;;;;;;;;;;30.89;66.69;100765.75;5083266;27;70226;-36
2023/01/12 07:07:40;;;;;;;;;;;;;;;30.91;66.24;100757.44;5080987;27;67054;-37
2023/01/12 07:10:11;;;;;;;;;;;;;;;30.94;66.32;100756.97;5048618;27;69725;-35
2023/01/12 07:12:42;;;;;;;;;;;;;;;30.96;65.97;100760.31;5082951;27;66975;-36
2023/01/12 07:15:14;;;;;;;;;;;;;;;31.00;66.00;100752.53;5082143;27;68433;-36
2023/01/12 07:17:45;;;;;;;;;;;;;;;31.02;66.29;100747.75;5082798;27;66015;-36
2023/01/12 07:20:16;;;;;;;;;;;;;;;31.04;66.27;100751.06;5059930;27;70029;-36
2023/01/12 07:22:46;;;;;;;;;;;;;;;31.04;65.98;100756.47;5080275;27;65427;-36
2023/01/12 07:25:17;;;;;;;;;;;;;;;31.08;65.93;100758.50;5082935;27;70092;-36
2023/01/12 07:27:55;;;;;;;;;;;;;;;31.11;66.06;100752.63;5082425;27;66562;-36
2023/01/12 07:30:27;;;;;;;;;;;;;;;31.14;65.77;100763.00;5062338;28;69157;-35
2023/01/12 07:33:04;;;;;;;;;;;;;;;31.16;65.70;100760.09;5080954;27;66726;-36
2023/01/12 07:35:36;;;;;;;;;;;;;;;31.19;65.58;100758.81;5079488;27;70623;-36
2023/01/12 07:38:07;;;;;;;;;;;;;;;31.21;65.48;100762.13;5085849;27;66825;-37
2023/01/12 07:40:38;;;;;;;;;;;;;;;31.23;65.67;100760.00;5084808;27;70273;-36
2023/01/12 07:43:10;;;;;;;;;;;;;;;31.27;65.45;100769.34;5066764;27;66069;-36
2023/01/12 07:45:41;;;;;;;;;;;;;;;31.27;65.55;100766.66;5083034;27;70205;-36
2023/01/12 07:48:11;;;;;;;;;;;;;;;31.30;65.01;100766.19;5082381;27;66575;-36
2023/01/12 07:50:42;;;;;;;;;;;;;;;31.31;65.05;100765.13;5085694;27;69839;-36
2023/01/12 07:53:13;;;;;;;;;;;;;;;31.33;64.67;100765.72;5082569;27;65947;-36
2023/01/12 07:55:44;;;;;;;;;;;;;;;31.36;64.97;100765.31;5081533;27;69958;-35
2023/01/12 07:58:14;;;;;;;;;;;;;;;31.39;64.84;100771.09;5084703;27;65945;-36
2023/01/12 08:00:45;;;;;;;;;;;;;;;31.43;64.64;100759.84;5083063;27;70350;-36
2023/01/12 08:03:16;;;;;;;;;;;;;;;31.45;64.25;100763.94;5084551;27;67383;-36
2023/01/12 08:05:46;;;;;;;;;;;;;;;31.48;64.21;100757.25;5085583;27;69278;-36
2023/01/12 08:08:17;;;;;;;;;;;;;;;31.52;64.04;100764.69;5083714;27;66094;-36
2023/01/12 08:10:49;;;;;;;;;;;;;;;31.53;64.30;100750.06;5085193;27;71004;-37
2023/01/12 08:13:21;;;;;;;;;;;;;;;31.54;64.20;100757.19;5083606;27;66584;-35
2023/01/12 08:15:53;;;;;;;;;;;;;;;31.58;63.99;100762.97;5086537;27;70003;-37
2023/01/12 08:18:26;;;;;;;;;;;;;;;31.61;63.98;100767.94;5083095;27;66728;-37
2023/01/12 08:20:59;;;;;;;;;;;;;;;31.65;63.97;100773.72;5090711;27;69491;-37
2023/01/12 08:23:33;;;;;;;;;;;;;;;31.66;63.88;100759.94;5084561;27;65967;-37
2023/01/12 08:26:06;;;;;;;;;;;;;;;31.69;63.85;100762.19;5083442;27;70745;-37
2023/01/12 08:28:40;;;;;;;;;;;;;;;31.71;64.04;100765.50;5083031;27;67518;-36
2023/01/12 08:31:14;;;;;;;;;;;;;;;31.74;63.89;100769.66;5059206;28;69736;-35
2023/01/12 08:33:45;;;;;;;;;;;;;;;31.76;63.68;100762.94;5069122;27;66462;-36
2023/01/12 08:36:17;;;;;;;;;;;;;;;31.77;63.76;100761.88;5083479;27;70117;-36
2023/01/12 08:38:48;;;;;;;;;;;;;;;31.80;63.31;100766.00;5084489;27;66348;-36
2023/01/12 08:41:52;;;;;;;;;;;;;;;31.81;63.40;100767.66;5082549;27;69774;-36
2023/01/12 08:44:15;;;;;;;;;;;;;;;31.85;63.33;100768.88;5091224;27;66900;-37
2023/01/12 08:46:50;;;;;;;;;;;;;;;31.88;63.18;100768.41;5081539;27;69920;-36
2023/01/12 08:49:23;;;;;;;;;;;;;;;31.89;63.26;100770.06;5087552;27;65988;-36
2023/01/12 08:51:54;;;;;;;;;;;;;;;31.93;63.27;100774.00;5086000;27;69898;-37
2023/01/12 08:54:25;;;;;;;;;;;;;;;31.95;63.09;100771.03;5086887;27;67357;-37
2023/01/12 08:56:55;;;;;;;;;;;;;;;31.96;62.89;100776.25;5088071;27;69711;-37
2023/01/12 08:59:27;;;;;;;;;;;;;;;31.99;63.26;100770.38;5082863;27;66591;-37
2023/01/12 09:01:58;;;;;;;;;;;;;;;32.02;62.95;100769.91;5087287;27;69773;-36
2023/01/12 09:04:28;;;;;;;;;;;;;;;32.04;62.99;100770.50;5076110;28;65143;-36
2023/01/12 09:06:59;;;;;;;;;;;;;;;32.05;62.89;100769.44;5090822;27;70875;-37
2023/01/12 09:09:31;;;;;;;;;;;;;;;32.11;63.16;100766.88;5069542;27;66891;-36
2023/01/12 09:12:02;;;;;;;;;;;;;;;32.14;62.84;100766.41;5093235;27;70253;-37
2023/01/12 09:14:37;;;;;;;;;;;;;;;32.16;62.87;100775.16;5083264;27;66737;-36
2023/01/12 09:17:08;;;;;;;;;;;;;;;32.22;62.17;100774.22;5083922;27;69498;-36
2023/01/12 09:19:38;;;;;;;;;;;;;;;32.18;62.86;100773.00;5083803;27;66256;-36
2023/01/12 09:22:09;;;;;;;;;;;;;;;32.10;63.69;100776.06;5082163;27;69341;-36
2023/01/12 09:24:40;;;;;;;;;;;;;;;31.98;63.66;100779.56;5084614;27;65981;-37
2023/01/12 09:27:11;;;;;;;;;;;;;;;31.97;63.68;100786.03;5077072;27;70248;-37
2023/01/12 09:29:41;;;;;;;;;;;;;;;31.91;63.91;100784.25;5085584;27;65935;-36
2023/01/12 09:32:12;;;;;;;;;;;;;;;31.87;64.04;100788.44;5059343;28;70045;-35
2023/01/12 09:34:47;;;;;;;;;;;;;;;31.86;63.93;100786.78;5086061;27;65590;-36
2023/01/12 09:37:17;;;;;;;;;;;;;;;31.81;64.01;100783.94;5075134;27;70544;-36
2023/01/12 09:39:49;;;;;;;;;;;;;;;31.79;64.31;100795.03;5087930;27;65692;-36
2023/01/12 09:48:11;;;;;;;;;;;;;;;31.78;64.49;100795.25;5080997;27;69816;-37
2023/01/12 09:50:58;;;;;;;;;;;;;;;31.80;64.13;100801.28;5076817;27;66469;-36
2023/01/12 09:53:34;;;;;;;;;;;;;;;31.78;64.34;100811.50;5080906;27;69774;-36
2023/01/12 09:56:08;;;;;;;;;;;;;;;31.75;64.55;100811.97;5064457;27;64348;-36
2023/01/12 09:58:57;;;;;;;;;;;;;;;31.74;64.58;100819.28;5079010;27;69219;-36
2023/01/12 10:01:27;;;;;;;;;;;;;;;31.73;64.19;100830.34;5077697;27;66305;-37
2023/01/12 10:04:00;;;;;;;;;;;;;;;31.67;64.17;100825.84;5078101;27;70106;-38
2023/01/12 10:06:32;;;;;;;;;;;;;;;31.60;63.38;100826.75;5079462;27;66354;-37
2023/01/12 10:09:04;;;;;;;;;;;;;;;31.61;62.75;100827.56;5076941;27;70351;-36
2023/01/12 10:11:35;;;;;;;;;;;;;;;31.49;62.63;100827.50;5083624;27;66082;-38
2023/01/12 10:14:23;;;;;;;;;;;;;;;31.42;62.89;100829.44;5079070;27;70557;-38
2023/01/12 10:17:09;;;;;;;;;;;;;;;31.42;62.69;100824.03;5077744;27;65875;-37
2023/01/12 10:19:47;;;;;;;;;;;;;;;31.44;62.90;100838.19;5078631;27;69472;-37
2023/01/12 10:22:38;;;;;;;;;;;;;;;31.41;62.48;100827.81;5083315;27;67241;-37
2023/01/12 10:25:11;;;;;;;;;;;;;;;31.36;62.25;100830.34;5080449;27;70488;-36
2023/01/12 10:27:43;;;;;;;;;;;;;;;31.39;62.86;100838.03;5079139;27;67191;-36
2023/01/12 10:30:24;;;;;;;;;;;;;;;31.38;62.97;100837.22;5080706;27;69916;-37
2023/01/12 10:32:56;;;;;;;;;;;;;;;31.39;63.46;100829.91;5077900;27;65382;-37
2023/01/12 10:35:26;;;;;;;;;;;;;;;31.39;64.13;100835.34;5054212;28;70050;-37
2023/01/12 10:37:57;;;;;;;;;;;;;;;31.43;64.48;100841.97;5084344;27;66949;-36
2023/01/12 10:40:30;;;;;;;;;;;;;;;31.43;64.13;100839.25;5076558;27;68679;-36
2023/01/12 10:43:19;;;;;;;;;;;;;;;31.43;64.16;100844.69;5081000;27;66387;-39
2023/01/12 10:46:09;;;;;;;;;;;;;;;31.44;64.11;100843.63;5080693;27;69718;-36
2023/01/12 10:48:42;;;;;;;;;;;;;;;31.44;64.30;100849.03;5082052;27;65636;-37
2023/01/12 10:51:20;;;;;;;;;;;;;;;31.38;64.84;100860.78;5078285;27;70057;-37
2023/01/12 10:53:51;;;;;;;;;;;;;;;31.40;64.19;100858.69;5079993;27;65937;-37
2023/01/12 10:56:28;;;;;;;;;;;;;;;31.42;64.09;100856.56;5066704;27;70147;-36
2023/01/12 10:59:06;;;;;;;;;;;;;;;31.45;64.30;100866.94;5083679;27;64486;-37
2023/01/12 11:01:45;;;;;;;;;;;;;;;31.45;63.95;100872.38;5084649;27;69601;-36
2023/01/12 11:04:25;;;;;;;;;;;;;;;31.49;63.94;100879.03;5084730;27;66343;-37
2023/01/12 11:07:08;;;;;;;;;;;;;;;31.50;64.14;100875.25;5047258;27;70111;-36
2023/01/12 11:09:39;;;;;;;;;;;;;;;31.49;64.06;100884.44;5083037;27;65576;-36
2023/01/12 11:12:30;;;;;;;;;;;;;;;31.47;64.27;100881.13;5056749;27;70084;-37
2023/01/12 11:15:03;;;;;;;;;;;;;;;31.44;64.09;100887.00;5091259;27;65635;-37
2023/01/12 11:17:46;;;;;;;;;;;;;;;31.47;64.16;100896.56;5091050;27;69572;-37
2023/01/12 11:20:22;;;;;;;;;;;;;;;31.45;64.08;100888.63;5092760;27;65305;-37
2023/01/12 11:22:55;;;;;;;;;;;;;;;31.43;64.22;100896.19;5091830;27;70174;-36
2023/01/12 11:25:28;;;;;;;;;;;;;;;31.42;64.23;100897.22;5088319;27;65398;-37
2023/01/12 11:28:14;;;;;;;;;;;;;;;31.40;64.26;100885.78;5069812;27;68331;-36
2023/01/12 11:30:45;;;;;;;;;;;;;;;31.36;64.45;100877.25;5088384;27;67072;-35
2023/01/12 11:33:28;;;;;;;;;;;;;;;31.37;64.83;100895.19;5060002;27;70348;-36
2023/01/12 11:35:59;;;;;;;;;;;;;;;31.50;64.83;100899.66;5061724;27;65516;-36
2023/01/12 11:38:36;;;;;;;;;;;;;;;31.50;64.93;100906.94;5085190;27;70120;-36
2023/01/12 11:41:09;;;;;;;;;;;;;;;31.42;65.01;100910.78;5061314;28;65398;-36
2023/01/12 11:43:49;;;;;;;;;;;;;;;31.37;65.04;100900.63;5068629;27;70320;-36
2023/01/12 11:46:26;;;;;;;;;;;;;;;31.36;65.33;100911.69;5082941;27;65771;-37
2023/01/12 11:49:06;;;;;;;;;;;;;;;31.32;65.20;100905.03;5060294;27;69213;-37
2023/01/12 11:51:38;;;;;;;;;;;;;;;31.29;65.38;100906.28;5079778;27;66336;-35
2023/01/12 11:54:16;;;;;;;;;;;;;;;31.27;65.62;100910.28;5084974;27;71642;-36
2023/01/12 11:57:05;;;;;;;;;;;;;;;31.28;65.92;100920.06;5083774;27;66005;-37
2023/01/12 12:00:05;;;;;;;;;;;;;;;31.25;66.09;100918.63;5084536;27;69113;-37
2023/01/12 12:03:01;;;;;;;;;;;;;;;31.22;65.96;100924.47;5069611;27;66313;-36
2023/01/12 12:05:43;;;;;;;;;;;;;;;31.20;66.06;100917.63;5073833;27;69143;-36
2023/01/12 12:08:20;;;;;;;;;;;;;;;31.14;66.45;100922.88;5078571;27;65941;-37
2023/01/12 12:11:13;;;;;;;;;;;;;;;31.13;67.45;100932.06;5081669;27;69856;-37
2023/01/12 12:13:50;;;;;;;;;;;;;;;31.12;67.70;100933.13;5052214;27;65797;-36
2023/01/12 12:16:27;;;;;;;;;;;;;;;31.10;67.65;100935.22;5080807;27;69517;-37
2023/01/12 12:19:10;;;;;;;;;;;;;;;31.08;67.67;100937.31;5079074;27;66992;-37
2023/01/12 12:21:44;;;;;;;;;;;;;;;31.09;67.53;100936.28;5064287;27;70110;-36
2023/01/12 12:24:24;;;;;;;;;;;;;;;31.06;67.58;100944.81;5075342;27;65426;-37
2023/01/12 12:27:04;;;;;;;;;;;;;;;31.04;67.78;100946.94;5080471;27;69386;-37
2023/01/12 12:29:34;;;;;;;;;;;;;;;31.03;68.32;100950.69;5079209;27;66824;-37
2023/01/12 12:32:19;;;;;;;;;;;;;;;31.02;68.69;100959.03;5083782;27;70170;-36
2023/01/12 12:35:08;;;;;;;;;;;;;;;31.05;69.08;100959.44;5081783;27;66605;-37
2023/01/12 12:38:04;;;;;;;;;;;;;;;30.97;69.33;100962.41;5083987;27;69820;-36
2023/01/12 12:47:24;;;;;;;;;;;;;;;31.06;69.17;100980.03;5084218;27;66667;-35
2023/01/12 12:49:58;;;;;;;;;;;;;;;31.02;69.56;100984.25;5089571;27;69770;-37
2023/01/12 12:52:33;;;;;;;;;;;;;;;31.03;69.80;100985.91;5074736;28;67013;-36
2023/01/12 12:55:05;;;;;;;;;;;;;;;31.05;69.56;100988.41;5081268;27;69914;-36
2023/01/12 12:57:56;;;;;;;;;;;;;;;31.01;69.58;100985.31;5076756;27;66913;-36
2023/01/12 13:00:29;;;;;;;;;;;;;;;31.03;69.30;100990.50;5082096;27;70646;-36
2023/01/12 13:02:59;;;;;;;;;;;;;;;30.98;69.66;100993.88;5059068;27;65626;-39
2023/01/12 13:05:47;;;;;;;;;;;;;;;31.00;70.31;100994.47;5081614;27;69538;-37
2023/01/12 13:08:23;;;;;;;;;;;;;;;30.99;70.01;101000.94;5066187;27;65585;-37
2023/01/12 13:10:57;;;;;;;;;;;;;;;30.94;70.47;100998.06;5078116;27;70986;-37
2023/01/12 13:13:32;;;;;;;;;;;;;;;30.81;71.32;101000.84;5077253;27;66335;-38
2023/01/12 13:16:10;;;;;;;;;;;;;;;30.77;71.31;100999.59;5054697;27;69566;-37
2023/01/12 13:19:02;;;;;;;;;;;;;;;30.80;71.08;101010.84;5077944;27;66678;-36
2023/01/12 13:21:56;;;;;;;;;;;;;;;30.84;70.58;101006.69;5080322;27;70346;-37
2023/01/12 13:24:38;;;;;;;;;;;;;;;30.81;70.52;101007.06;5079169;27;66136;-38
2023/01/12 13:27:27;;;;;;;;;;;;;;;30.78;71.17;101020.19;5087157;27;70397;-37
2023/01/12 13:30:18;;;;;;;;;;;;;;;30.77;70.88;101021.25;5068654;27;66080;-37
2023/01/12 13:33:00;;;;;;;;;;;;;;;30.75;71.34;101017.94;5080268;27;69904;-38
2023/01/12 13:35:45;;;;;;;;;;;;;;;30.76;71.08;101019.56;5077462;27;66012;-37
2023/01/12 13:38:19;;;;;;;;;;;;;;;30.72;70.99;101022.72;5068777;27;70089;-37